Time;durP1;ratioP1;P1;durP2;ratioP2;P2;SDS_P1;SDS_P2;PMS_P1;PMS_P2;Temp;Humidity;BMP_temperature;BMP_pressure;BME280_temperature;BME280_humidity;BME280_pressure;Samples;Min_cycle;Max_cycle;Signal;HPM_P1;HPM_P2
2023/09/23 00:01:04;;;;;;;6.68;2.25;;;;;;;24.17;55.12;100271.53;5959374;23;20062;-82
2023/09/23 00:03:45;;;;;;;4.95;2.20;;;;;;;24.25;52.39;100263.91;5931193;23;20467;-83
2023/09/23 00:06:27;;;;;;;7.90;2.42;;;;;;;24.24;48.91;100291.25;5920988;23;20555;-82
2023/09/23 00:09:04;;;;;;;5.15;2.30;;;;;;;24.22;48.71;100296.06;5934802;23;20204;-81
2023/09/23 00:11:40;;;;;;;6.07;2.63;;;;;;;24.21;50.19;100316.13;5931101;23;20020;-82
2023/09/23 00:14:22;;;;;;;7.32;2.30;;;;;;;24.09;51.01;100302.53;5944550;23;20098;-83
2023/09/23 00:16:51;;;;;;;4.78;1.92;;;;;;;24.17;47.98;100331.19;5982489;23;20257;-82
2023/09/23 00:19:20;;;;;;;8.85;2.40;;;;;;;24.15;48.17;100323.28;5968503;23;20079;-83
2023/09/23 00:21:48;;;;;;;6.25;2.63;;;;;;;24.04;48.76;100313.25;5963801;23;20290;-80
2023/09/23 00:24:17;;;;;;;4.30;2.10;;;;;;;24.09;49.91;100314.19;5997616;23;20699;-82
2023/09/23 00:26:48;;;;;;;4.53;2.35;;;;;;;23.98;55.01;100279.78;5990128;23;20066;-81
2023/09/23 00:29:25;;;;;;;11.02;2.92;;;;;;;24.12;49.20;100302.06;6000512;23;20038;-80
2023/09/23 00:31:54;;;;;;;5.30;2.17;;;;;;;24.20;52.96;100309.03;6016971;23;20482;-81
2023/09/23 00:34:23;;;;;;;4.72;2.15;;;;;;;24.08;53.23;100290.88;5995938;23;20316;-80
2023/09/23 00:36:53;;;;;;;;;;;;;;;24.13;49.83;100302.88;6000261;23;20269;-82
2023/09/23 00:39:20;;;;;;;6.90;2.50;;;;;;;24.16;51.06;100297.00;5983918;23;20389;-81
2023/09/23 00:41:47;;;;;;;6.22;2.70;;;;;;;24.14;52.01;100291.81;5988681;23;20019;-80
2023/09/23 00:44:16;;;;;;;9.95;2.33;;;;;;;24.08;53.15;100282.72;5982494;23;20111;-81
2023/09/23 00:46:44;;;;;;;9.93;2.83;;;;;;;24.19;50.34;100291.94;5992255;23;20134;-81
2023/09/23 00:49:13;;;;;;;6.10;2.53;;;;;;;24.09;51.09;100276.25;5990407;23;20046;-81
2023/09/23 00:51:44;;;;;;;5.30;2.00;;;;;;;23.81;52.69;100232.69;6042613;23;20572;-82
2023/09/23 00:54:13;;;;;;;8.38;2.15;;;;;;;24.16;53.91;100287.00;6002482;23;20019;-82
2023/09/23 00:56:41;;;;;;;8.27;2.63;;;;;;;23.83;48.98;100249.56;5985832;23;20020;-81
2023/09/23 00:59:11;;;;;;;8.88;2.63;;;;;;;24.06;47.51;100309.25;5997917;23;20047;-82
2023/09/23 01:01:41;;;;;;;10.13;2.17;;;;;;;23.86;49.86;100292.44;5974752;23;20027;-82
2023/09/23 01:04:13;;;;;;;7.10;2.35;;;;;;;23.77;50.28;100281.13;5991037;23;20400;-80
2023/09/23 01:06:41;;;;;;;6.78;2.10;;;;;;;23.97;48.64;100301.69;5993211;23;20478;-81
2023/09/23 01:09:14;;;;;;;4.05;1.77;;;;;;;23.80;48.11;100283.38;6009365;23;21014;-81
2023/09/23 01:11:41;;;;;;;10.60;2.25;;;;;;;23.42;48.35;100222.22;6014176;23;20031;-81
2023/09/23 01:14:12;;;;;;;9.02;2.05;;;;;;;23.85;47.52;100312.50;5954400;23;20573;-83
2023/09/23 01:16:41;;;;;;;8.52;2.47;;;;;;;23.74;47.19;100307.84;6033280;23;20098;-80
2023/09/23 01:19:09;;;;;;;8.95;2.10;;;;;;;23.71;47.30;100322.66;6042722;23;20530;-81
2023/09/23 01:21:39;;;;;;;10.45;3.00;;;;;;;23.37;47.77;100270.81;6004521;23;20025;-82
2023/09/23 01:24:14;;;;;;;6.30;2.58;;;;;;;23.23;49.63;100245.81;6028474;23;20114;-83
2023/09/23 01:26:52;;;;;;;6.18;2.30;;;;;;;23.59;47.18;100294.69;6055244;23;20019;-81
2023/09/23 01:29:28;;;;;;;4.45;1.85;;;;;;;23.71;49.79;100313.72;6007280;23;20164;-80
2023/09/23 01:32:23;;;;;;;7.50;1.98;;;;;;;24.09;57.02;100314.19;6014288;23;20026;-82
2023/09/23 01:34:52;;;;;;;4.22;1.75;;;;;;;24.23;56.41;100303.16;6040825;23;20235;-83
2023/09/23 01:37:19;;;;;;;8.52;2.20;;;;;;;23.68;50.41;100241.81;6065194;23;20062;-83
2023/09/23 01:39:52;;;;;;;11.55;2.13;;;;;;;23.98;51.67;100309.59;6008421;23;20029;-80
2023/09/23 01:42:22;;;;;;;2.83;1.75;;;;;;;24.13;53.99;100313.72;6041195;23;20029;-82
2023/09/23 01:44:49;;;;;;;8.00;2.13;;;;;;;23.94;52.25;100289.44;6042754;23;20350;-82
2023/09/23 01:47:21;;;;;;;6.55;2.28;;;;;;;23.94;52.40;100284.00;5990319;23;20023;-83
2023/09/23 01:49:48;;;;;;;4.60;1.98;;;;;;;24.06;48.82;100308.44;6007045;23;20023;-80
2023/09/23 01:52:16;;;;;;;7.88;2.28;;;;;;;24.08;49.64;100303.59;6012613;23;20078;-83
2023/09/23 01:54:47;;;;;;;4.05;2.03;;;;;;;24.03;52.57;100300.75;6010072;23;20022;-80
2023/09/23 01:57:20;;;;;;;5.05;1.75;;;;;;;24.04;53.94;100300.53;5997079;23;20019;-81
2023/09/23 01:59:52;;;;;;;9.48;2.03;;;;;;;24.10;53.25;100293.34;5963418;23;20109;-81
2023/09/23 02:02:22;;;;;;;5.10;2.30;;;;;;;24.07;54.72;100283.78;5953807;23;20033;-80
2023/09/23 02:04:49;;;;;;;10.48;2.00;;;;;;;24.18;54.01;100290.28;5999049;23;20251;-81
2023/09/23 02:07:16;;;;;;;8.80;2.55;;;;;;;23.82;53.39;100228.94;5988961;23;20175;-79
2023/09/23 02:09:48;;;;;;;4.63;1.75;;;;;;;24.00;54.27;100252.41;6024787;23;20029;-83
2023/09/23 02:12:15;;;;;;;10.63;1.83;;;;;;;23.88;50.68;100244.25;6021025;23;20019;-79
2023/09/23 02:14:42;;;;;;;7.10;2.17;;;;;;;24.06;50.25;100286.75;6022162;23;20343;-81
2023/09/23 02:17:09;;;;;;;5.75;1.92;;;;;;;23.91;50.84;100268.22;6039116;23;20026;-80
2023/09/23 02:19:36;;;;;;;7.13;2.10;;;;;;;23.90;50.54;100261.13;6005231;23;20027;-80
2023/09/23 02:22:10;;;;;;;7.80;2.67;;;;;;;23.91;47.44;100284.47;6017989;23;20019;-84
2023/09/23 02:24:37;;;;;;;6.80;2.05;;;;;;;23.22;46.84;100210.81;6024057;23;20462;-83
2023/09/23 02:27:04;;;;;;;9.02;2.53;;;;;;;23.52;46.70;100289.38;6025352;23;20235;-83
2023/09/23 02:29:41;;;;;;;9.75;2.53;;;;;;;23.44;53.02;100266.13;6005570;23;20534;-83
2023/09/23 02:32:13;;;;;;;5.57;1.75;;;;;;;23.18;52.38;100218.59;6004670;23;20070;-81
2023/09/23 02:34:45;;;;;;;7.30;2.13;;;;;;;23.64;50.69;100301.09;5981539;23;20387;-82
2023/09/23 02:37:19;;;;;;;3.25;1.77;;;;;;;23.59;53.65;100270.31;5993480;23;20026;-83
2023/09/23 02:39:47;;;;;;;6.40;1.85;;;;;;;23.70;50.27;100266.00;5979373;23;20131;-82
2023/09/23 02:42:14;;;;;;;6.82;1.92;;;;;;;23.70;50.93;100290.38;5995280;23;20094;-83
2023/09/23 02:44:40;;;;;;;7.78;2.17;;;;;;;23.76;51.50;100313.88;5987233;23;20023;-81
2023/09/23 02:47:10;;;;;;;7.22;2.05;;;;;;;23.55;52.38;100259.13;6011335;23;20023;-81
2023/09/23 02:49:39;;;;;;;8.45;2.13;;;;;;;23.78;51.79;100280.06;5955032;23;20019;-82
2023/09/23 02:52:08;;;;;;;5.75;1.88;;;;;;;23.81;50.57;100300.44;5990751;23;20037;-83
2023/09/23 02:54:41;;;;;;;7.50;1.70;;;;;;;23.87;53.64;100277.84;6008833;23;20447;-82
2023/09/23 02:57:12;;;;;;;7.28;1.60;;;;;;;24.04;54.42;100303.22;5969398;23;20074;-82
2023/09/23 02:59:44;;;;;;;5.32;1.90;;;;;;;24.04;53.94;100291.56;5972434;23;20459;-81
2023/09/23 03:02:23;;;;;;;4.13;1.42;;;;;;;23.95;54.19;100290.25;5958286;23;20031;-82
2023/09/23 03:05:04;;;;;;;5.28;1.92;;;;;;;23.53;50.39;100225.19;5959293;23;20334;-82
2023/09/23 03:07:33;;;;;;;7.57;2.33;;;;;;;23.91;48.76;100306.16;6022296;23;20102;-82
2023/09/23 03:10:12;;;;;;;;;;;;;;;23.94;48.88;100326.56;5975309;23;20447;-81
2023/09/23 03:12:51;;;;;;;7.38;1.80;;;;;;;23.92;52.42;100299.66;5952478;23;20001;-82
2023/09/23 03:15:33;;;;;;;6.72;1.90;;;;;;;23.92;53.69;100299.66;5941303;23;20737;-81
2023/09/23 03:18:09;;;;;;;4.97;2.00;;;;;;;23.82;47.90;100308.34;5949259;23;20154;-80
2023/09/23 03:20:45;;;;;;;7.38;2.17;;;;;;;23.58;49.46;100296.56;5937311;23;20023;-83
2023/09/23 03:23:23;;;;;;;6.28;2.40;;;;;;;23.59;46.17;100309.09;5917635;23;20102;-82
2023/09/23 03:25:57;;;;;;;6.45;2.08;;;;;;;23.47;46.09;100310.88;5941671;23;20030;-83
2023/09/23 03:28:26;;;;;;;10.80;2.05;;;;;;;23.41;47.85;100309.09;5932366;23;20046;-80
2023/09/23 03:31:03;;;;;;;8.75;1.88;;;;;;;22.89;46.23;100240.97;5981368;23;20398;-81
2023/09/23 03:33:29;;;;;;;13.18;2.33;;;;;;;23.19;48.16;100308.75;6027451;23;20102;-80
2023/09/23 03:35:56;;;;;;;8.25;1.80;;;;;;;23.13;47.34;100315.91;5983343;23;20108;-82
2023/09/23 03:38:32;;;;;;;4.80;1.67;;;;;;;23.05;47.27;100313.50;5930667;23;20021;-82
2023/09/23 03:41:02;;;;;;;9.60;2.08;;;;;;;22.88;48.63;100299.69;5985765;23;20023;-80
2023/09/23 03:43:29;;;;;;;12.63;2.40;;;;;;;22.70;48.14;100269.94;5996499;23;20082;-80
2023/09/23 03:45:56;;;;;;;5.03;1.63;;;;;;;22.83;47.86;100276.00;5963916;23;20050;-81
2023/09/23 03:48:25;;;;;;;5.47;1.88;;;;;;;23.09;51.40;100313.88;5997156;23;20301;-80
2023/09/23 03:50:55;;;;;;;8.65;1.98;;;;;;;22.80;47.98;100279.16;5951643;23;20024;-84
2023/09/23 03:53:23;;;;;;;7.30;2.03;;;;;;;23.00;47.88;100327.69;6013253;23;20019;-81
2023/09/23 03:55:55;;;;;;;7.10;2.30;;;;;;;22.91;47.22;100329.00;5994191;23;20034;-80
2023/09/23 03:58:30;;;;;;;8.82;2.08;;;;;;;22.78;47.52;100346.22;5984363;23;20412;-82
2023/09/23 04:01:05;;;;;;;10.43;2.50;;;;;;;22.67;47.89;100338.00;5993347;23;20058;-81
2023/09/23 04:03:34;;;;;;;8.60;2.58;;;;;;;22.65;47.99;100346.34;6000523;23;20031;-81
2023/09/23 04:06:05;;;;;;;5.55;2.25;;;;;;;22.73;50.89;100350.66;6052060;23;20025;-80
2023/09/23 04:08:32;;;;;;;9.52;2.42;;;;;;;22.87;49.88;100344.06;6013924;23;20232;-81
2023/09/23 04:11:04;;;;;;;5.95;1.90;;;;;;;22.66;50.71;100310.13;6016597;23;20106;-82
2023/09/23 04:13:31;;;;;;;8.68;2.13;;;;;;;22.78;48.45;100335.38;6024245;23;20681;-79
2023/09/23 04:16:01;;;;;;;11.10;2.78;;;;;;;22.75;48.35;100354.78;5996898;23;20106;-81
2023/09/23 04:18:37;;;;;;;8.95;2.15;;;;;;;22.55;48.01;100357.69;5997222;23;20458;-81
2023/09/23 04:21:08;;;;;;;4.85;2.13;;;;;;;22.87;54.71;100359.47;6033027;23;20090;-82
2023/09/23 04:23:35;;;;;;;8.02;2.42;;;;;;;22.44;53.41;100279.13;6005104;23;20232;-80
2023/09/23 04:26:03;;;;;;;11.43;2.55;;;;;;;22.88;50.31;100377.34;5994627;23;20324;-84
2023/09/23 04:28:31;;;;;;;7.97;2.05;;;;;;;22.81;49.78;100366.59;6027041;23;20031;-82
2023/09/23 04:31:03;;;;;;;7.35;1.63;;;;;;;23.11;56.19;100366.75;6033199;23;20094;-82
2023/09/23 04:33:29;;;;;;;8.55;2.03;;;;;;;23.18;53.90;100372.91;5996618;23;20332;-80
2023/09/23 04:35:59;;;;;;;10.90;2.60;;;;;;;23.18;51.99;100351.25;5994910;23;20022;-80
2023/09/23 04:38:26;;;;;;;5.28;1.92;;;;;;;22.92;51.23;100313.63;5983998;23;20315;-81
2023/09/23 04:40:53;;;;;;;12.98;2.80;;;;;;;23.08;50.40;100350.94;5997136;23;20067;-80
2023/09/23 04:43:20;;;;;;;18.45;2.92;;;;;;;23.00;50.32;100343.94;5992608;23;20051;-82
2023/09/23 04:45:48;;;;;;;13.40;2.67;;;;;;;23.04;51.99;100347.03;6003724;23;20502;-81
2023/09/23 04:48:18;;;;;;;9.65;2.38;;;;;;;23.18;49.57;100389.16;6050130;23;20429;-81
2023/09/23 04:50:46;;;;;;;7.72;2.55;;;;;;;23.18;49.96;100400.00;5971187;23;20165;-82
2023/09/23 04:53:13;;;;;;;9.20;2.17;;;;;;;23.26;51.04;100393.47;5958507;23;20034;-81
2023/09/23 04:55:40;;;;;;;9.38;2.17;;;;;;;23.27;52.22;100407.81;5958543;23;20090;-82
2023/09/23 04:58:13;;;;;;;8.73;2.40;;;;;;;23.13;51.04;100405.25;5964966;23;20090;-82
2023/09/23 05:00:46;;;;;;;9.30;2.05;;;;;;;23.06;51.97;100399.09;6008296;23;20032;-80
2023/09/23 05:03:12;;;;;;;4.32;1.70;;;;;;;23.02;51.44;100395.97;6050677;23;20058;-80
2023/09/23 05:05:39;;;;;;;8.88;2.63;;;;;;;23.14;53.30;100409.63;6011521;23;20097;-81
2023/09/23 05:08:10;;;;;;;7.45;1.88;;;;;;;22.88;52.12;100371.94;6025565;23;20023;-80
2023/09/23 05:10:41;;;;;;;11.05;2.85;;;;;;;22.76;51.48;100364.53;5993829;23;20030;-83
2023/09/23 05:13:09;;;;;;;9.20;2.45;;;;;;;22.91;51.05;100393.16;6001633;23;20019;-79
2023/09/23 05:15:45;;;;;;;8.20;1.92;;;;;;;23.03;50.96;100418.47;6020688;23;20031;-81
2023/09/23 05:18:11;;;;;;;12.13;2.58;;;;;;;23.00;50.57;100417.03;6025169;23;20023;-80
2023/09/23 05:20:40;;;;;;;8.30;2.58;;;;;;;22.90;48.33;100415.88;6064612;23;20019;-81
2023/09/23 05:23:07;;;;;;;13.65;2.97;;;;;;;22.83;48.42;100415.91;6009361;23;20029;-80
2023/09/23 05:25:41;;;;;;;11.43;2.20;;;;;;;22.61;51.20;100401.94;6004226;23;20023;-82
2023/09/23 05:28:11;;;;;;;5.47;2.25;;;;;;;22.55;50.15;100400.97;6014135;23;20031;-82
2023/09/23 05:30:38;;;;;;;7.97;2.53;;;;;;;22.76;51.55;100407.03;6045867;23;20110;-80
2023/09/23 05:33:10;;;;;;;11.07;2.65;;;;;;;22.92;52.36;100421.88;5986141;23;20395;-80
2023/09/23 05:35:38;;;;;;;6.05;1.88;;;;;;;22.89;53.79;100427.72;6023095;23;20043;-79
2023/09/23 05:38:05;;;;;;;4.88;1.33;;;;;;;22.87;52.85;100413.59;6011925;23;20015;-80
2023/09/23 05:40:36;;;;;;;8.68;2.60;;;;;;;22.80;52.48;100409.06;6005661;23;20087;-79
2023/09/23 05:43:04;;;;;;;10.48;2.55;;;;;;;22.71;50.89;100415.78;6022945;23;20116;-78
2023/09/23 05:45:37;;;;;;;13.13;2.58;;;;;;;22.82;49.63;100447.56;6007333;23;20050;-81
2023/09/23 05:48:13;;;;;;;9.48;2.08;;;;;;;22.60;49.81;100408.41;6015686;23;20106;-83
2023/09/23 05:50:39;;;;;;;14.23;2.33;;;;;;;22.94;52.03;100453.09;6030574;23;20037;-80
2023/09/23 05:53:06;;;;;;;6.53;2.38;;;;;;;22.88;49.64;100461.25;6017233;23;20735;-82
2023/09/23 05:55:35;;;;;;;5.07;1.73;;;;;;;22.99;53.61;100460.59;6006563;23;20037;-81
2023/09/23 05:58:02;;;;;;;8.40;2.30;;;;;;;22.90;53.66;100451.03;6013815;23;20264;-81
2023/09/23 06:00:29;;;;;;;8.57;2.55;;;;;;;22.80;50.63;100452.38;6004068;23;20458;-80
2023/09/23 06:02:55;;;;;;;8.32;2.63;;;;;;;22.71;49.42;100440.16;5985695;23;20030;-81
2023/09/23 06:05:26;;;;;;;16.45;2.92;;;;;;;22.85;50.07;100457.13;6024807;23;20637;-80
2023/09/23 06:07:54;;;;;;;5.80;1.65;;;;;;;22.86;50.76;100463.34;6010195;23;20390;-82
2023/09/23 06:10:24;;;;;;;8.52;2.40;;;;;;;22.88;50.38;100461.25;5973993;23;20075;-81
2023/09/23 06:12:56;;;;;;;8.55;2.30;;;;;;;22.83;51.29;100468.16;5950822;23;20343;-79
2023/09/23 06:15:31;;;;;;;7.68;2.17;;;;;;;22.91;52.78;100479.75;5944799;23;20042;-81
2023/09/23 06:17:59;;;;;;;27.63;3.50;;;;;;;22.67;49.81;100451.63;5963945;23;20042;-78
2023/09/23 06:20:28;;;;;;;11.55;2.63;;;;;;;22.83;49.98;100473.56;6031133;23;20023;-79
2023/09/23 06:22:55;;;;;;;6.03;2.42;;;;;;;22.59;49.28;100471.66;5899529;23;20024;-80
2023/09/23 06:25:23;;;;;;;10.05;2.53;;;;;;;22.67;49.74;100479.53;5990488;23;20539;-81
2023/09/23 06:27:50;;;;;;;7.85;2.42;;;;;;;22.79;52.92;100506.69;6019268;23;20231;-81
2023/09/23 06:30:17;;;;;;;11.43;2.88;;;;;;;22.69;48.77;100501.78;6030218;23;20023;-79
2023/09/23 06:32:47;;;;;;;10.57;2.30;;;;;;;22.60;50.53;100490.41;5968315;23;20027;-77
2023/09/23 06:35:16;;;;;;;10.55;2.53;;;;;;;22.59;49.56;100509.53;5970915;23;20102;-81
2023/09/23 06:37:44;;;;;;;6.18;1.85;;;;;;;22.51;50.37;100497.13;5964054;23;20877;-80
2023/09/23 06:40:10;;;;;;;10.23;2.60;;;;;;;22.71;49.08;100524.03;5983459;23;20027;-81
2023/09/23 06:42:37;;;;;;;13.75;2.90;;;;;;;22.66;49.88;100499.50;5991119;23;20042;-79
2023/09/23 06:45:08;;;;;;;14.32;2.63;;;;;;;22.66;49.83;100521.16;5969622;23;20532;-79
2023/09/23 06:47:35;;;;;;;10.85;2.90;;;;;;;22.46;49.71;100472.59;5987307;23;20102;-80
2023/09/23 06:50:04;;;;;;;13.77;2.67;;;;;;;22.70;48.70;100526.97;5981298;23;20015;-82
2023/09/23 06:52:31;;;;;;;9.20;2.63;;;;;;;22.72;48.45;100523.00;5989952;23;20027;-81
2023/09/23 06:54:59;;;;;;;13.18;2.97;;;;;;;22.49;49.62;100501.09;5988422;23;20783;-79
2023/09/23 06:57:26;;;;;;;9.80;2.65;;;;;;;22.68;50.69;100539.88;5984091;23;20186;-80
2023/09/23 06:59:53;;;;;;;7.13;2.47;;;;;;;22.78;49.20;100542.94;5970760;23;20505;-78
2023/09/23 07:02:22;;;;;;;4.43;1.65;;;;;;;22.86;52.01;100547.25;5983121;23;20053;-80
2023/09/23 07:04:49;;;;;;;11.80;3.47;;;;;;;22.79;48.62;100545.44;5987191;23;20041;-80
2023/09/23 07:07:17;;;;;;;10.68;2.85;;;;;;;22.79;49.51;100564.38;6016461;23;20034;-82
2023/09/23 07:09:44;;;;;;;14.68;3.55;;;;;;;22.76;48.85;100553.16;5998328;23;20093;-81
2023/09/23 07:12:12;;;;;;;14.10;3.05;;;;;;;22.78;48.70;100568.13;5986729;23;20030;-77
2023/09/23 07:14:46;;;;;;;17.48;3.30;;;;;;;22.83;48.01;100565.59;5990301;23;20558;-79
2023/09/23 07:17:27;;;;;;;14.57;3.13;;;;;;;22.71;47.94;100550.28;6015047;23;20123;-79
2023/09/23 07:19:59;;;;;;;11.48;3.20;;;;;;;22.61;48.33;100540.75;5988471;23;20486;-78
2023/09/23 07:22:27;;;;;;;13.05;2.92;;;;;;;22.70;48.38;100565.69;5961748;23;20093;-77
2023/09/23 07:24:59;;;;;;;17.83;2.97;;;;;;;22.75;49.61;100565.84;5945490;23;20284;-78
2023/09/23 07:27:31;;;;;;;11.98;2.60;;;;;;;22.66;48.34;100548.22;5958182;23;20478;-77
2023/09/23 07:29:59;;;;;;;9.10;2.60;;;;;;;22.62;47.54;100536.16;5953296;23;20533;-81
2023/09/23 07:32:26;;;;;;;5.88;1.85;;;;;;;22.82;48.99;100569.34;5990888;23;20135;-81
2023/09/23 07:34:57;;;;;;;9.93;2.63;;;;;;;22.89;47.69;100576.59;5954665;23;20034;-81
2023/09/23 07:37:37;;;;;;;9.82;3.35;;;;;;;22.76;47.06;100564.78;5954327;23;20196;-80
2023/09/23 07:40:13;;;;;;;11.23;2.85;;;;;;;22.85;47.08;100578.09;6002964;23;20023;-79
2023/09/23 07:42:48;;;;;;;8.05;2.58;;;;;;;22.79;47.06;100568.94;5962047;23;20139;-77
2023/09/23 07:45:22;;;;;;;5.95;2.53;;;;;;;22.59;46.26;100548.25;5978637;23;20022;-81
2023/09/23 07:47:53;;;;;;;12.20;3.00;;;;;;;22.87;47.70;100587.66;5935199;23;20494;-79
2023/09/23 07:50:28;;;;;;;11.40;2.70;;;;;;;22.92;45.96;100573.47;5995667;23;20502;-81
2023/09/23 07:53:05;;;;;;;14.27;2.80;;;;;;;23.01;47.14;100591.09;5946589;23;20365;-80
2023/09/23 07:55:41;;;;;;;8.35;2.40;;;;;;;23.01;49.07;100589.25;5958547;23;20022;-79
2023/09/23 07:58:12;;;;;;;13.30;2.92;;;;;;;23.08;47.70;100600.00;5970093;23;20395;-79
2023/09/23 08:00:49;;;;;;;12.48;2.72;;;;;;;23.01;47.82;100583.84;5965763;23;20105;-79
2023/09/23 08:03:26;;;;;;;8.13;3.28;;;;;;;23.09;48.04;100595.44;5987693;23;20270;-77
2023/09/23 08:06:01;;;;;;;19.25;4.30;;;;;;;23.16;48.17;100602.47;5932644;23;20024;-79
2023/09/23 08:08:33;;;;;;;15.32;5.70;;;;;;;23.23;47.55;100605.97;5948549;23;20031;-77
2023/09/23 08:11:01;;;;;;;21.38;7.43;;;;;;;23.07;48.65;100570.47;5961699;23;20023;-79
2023/09/23 08:13:28;;;;;;;8.48;3.63;;;;;;;23.42;47.70;100617.69;5970291;23;20196;-79
2023/09/23 08:16:02;;;;;;;13.05;3.67;;;;;;;23.50;46.64;100622.00;5957110;23;20364;-78
2023/09/23 08:18:30;;;;;;;6.07;2.30;;;;;;;23.45;48.09;100622.66;5975282;23;20065;-78
2023/09/23 08:20:59;;;;;;;7.00;2.50;;;;;;;23.43;46.98;100613.09;5977459;23;20058;-78
2023/09/23 08:23:29;;;;;;;8.40;2.42;;;;;;;23.49;46.98;100633.06;5962854;23;20057;-77
2023/09/23 08:25:58;;;;;;;10.00;2.75;;;;;;;23.58;49.83;100626.31;5983561;23;20546;-78
2023/09/23 08:28:25;;;;;;;11.10;2.90;;;;;;;23.63;49.56;100630.00;5994573;23;20289;-76
2023/09/23 08:30:52;;;;;;;7.40;2.28;;;;;;;23.63;49.91;100623.78;5984646;23;20028;-78
2023/09/23 08:33:22;;;;;;;8.52;2.47;;;;;;;23.59;49.76;100607.13;5993822;23;20023;-77
2023/09/23 08:35:49;;;;;;;10.13;2.47;;;;;;;23.85;45.38;100629.63;6008308;23;20019;-78
2023/09/23 08:38:23;;;;;;;12.70;4.50;;;;;;;23.82;44.86;100621.97;5982425;23;20054;-79
2023/09/23 08:40:52;;;;;;;12.25;3.22;;;;;;;23.85;46.24;100637.78;6011108;23;20303;-79
2023/09/23 08:43:36;;;;;;;10.43;2.40;;;;;;;23.78;43.98;100609.91;5985837;23;20098;-80
2023/09/23 08:46:09;;;;;;;8.82;2.63;;;;;;;23.95;45.69;100638.09;5982456;23;20031;-81
2023/09/23 08:48:40;;;;;;;8.82;2.95;;;;;;;24.04;45.39;100636.75;5975508;23;20506;-80
2023/09/23 08:51:09;;;;;;;7.28;2.55;;;;;;;24.02;44.49;100624.47;6004309;23;20024;-80
2023/09/23 08:53:38;;;;;;;6.88;2.47;;;;;;;24.09;46.30;100606.25;5985292;23;20136;-80
2023/09/23 08:56:06;;;;;;;6.47;2.65;;;;;;;24.27;46.70;100624.38;5985027;23;20110;-81
2023/09/23 08:58:33;;;;;;;6.22;2.38;;;;;;;24.27;44.01;100627.09;5992205;23;20059;-79
2023/09/23 09:01:01;;;;;;;13.75;2.33;;;;;;;24.29;44.70;100622.28;5981584;23;20481;-82
2023/09/23 09:03:29;;;;;;;5.18;2.15;;;;;;;24.35;43.22;100624.09;6004632;23;20026;-80
2023/09/23 09:05:58;;;;;;;8.75;2.63;;;;;;;24.36;44.06;100623.03;6011416;23;20376;-80
2023/09/23 09:08:26;;;;;;;7.88;2.67;;;;;;;24.51;45.32;100631.63;6011982;23;20540;-76
2023/09/23 09:10:57;;;;;;;11.68;2.97;;;;;;;24.44;44.23;100608.34;6012717;23;20070;-78
2023/09/23 09:13:24;;;;;;;;;;;;;;;24.69;42.83;100632.69;6036949;23;20181;-79
2023/09/23 09:16:03;;;;;;;10.25;2.20;;;;;;;24.83;42.25;100636.91;6026515;23;20118;-80
2023/09/23 09:18:34;;;;;;;5.47;2.63;;;;;;;25.02;42.57;100636.81;6045346;23;20106;-79
2023/09/23 09:21:08;;;;;;;7.80;2.33;;;;;;;24.99;42.55;100626.44;6009533;23;20023;-77
2023/09/23 09:23:38;;;;;;;7.32;2.97;;;;;;;24.93;41.49;100596.44;6000381;23;20191;-76
2023/09/23 09:26:09;;;;;;;5.70;2.25;;;;;;;25.31;39.72;100640.59;6041794;23;20333;-79
2023/09/23 09:28:39;;;;;;;12.55;2.03;;;;;;;25.00;39.35;100568.34;6064675;23;20023;-79
2023/09/23 09:31:09;;;;;;;8.25;1.80;;;;;;;25.44;41.35;100634.13;6050138;23;20720;-79
2023/09/23 09:33:38;;;;;;;6.50;1.87;;;;;;;25.52;40.58;100640.03;6041847;23;20301;-78
2023/09/23 09:36:09;;;;;;;5.47;2.00;;;;;;;25.71;39.18;100646.22;6019981;23;20134;-77
2023/09/23 09:38:56;;;;;;;4.70;3.38;;;;;;;25.43;40.54;100591.72;6022949;23;20023;-79
2023/09/23 09:41:33;;;;;;;9.05;2.42;;;;;;;25.70;40.39;100613.81;6009898;23;20047;-77
2023/09/23 09:44:02;;;;;;;6.80;2.08;;;;;;;25.81;40.26;100591.25;6040258;23;20061;-78
2023/09/23 09:46:30;;;;;;;8.10;2.33;;;;;;;26.12;40.14;100643.63;6025365;23;20023;-77
2023/09/23 09:49:00;;;;;;;5.97;2.63;;;;;;;25.92;40.56;100608.63;6025836;23;20058;-79
2023/09/23 09:51:30;;;;;;;6.50;2.47;;;;;;;26.15;40.33;100614.06;6035843;23;20029;-78
2023/09/23 09:53:58;;;;;;;5.25;1.95;;;;;;;26.23;42.59;100610.94;6035818;23;20026;-79
2023/09/23 09:56:40;;;;;;;6.00;2.00;;;;;;;26.41;44.15;100628.22;6031438;23;20606;-79
2023/09/23 09:59:09;;;;;;;3.92;2.25;;;;;;;26.31;43.06;100612.50;5989187;23;20025;-78
2023/09/23 10:01:36;;;;;;;11.35;2.90;;;;;;;26.48;41.35;100618.00;6008098;23;20030;-80
2023/09/23 10:04:10;;;;;;;7.65;2.20;;;;;;;26.72;38.89;100616.03;5988801;23;20042;-77
2023/09/23 10:06:41;;;;;;;6.25;2.15;;;;;;;26.73;37.90;100608.72;6015488;23;20444;-77
2023/09/23 10:09:17;;;;;;;11.38;2.55;;;;;;;26.77;40.16;100596.25;5963520;23;20023;-78
2023/09/23 10:11:56;;;;;;;9.48;2.42;;;;;;;26.72;40.10;100602.44;6029254;23;20099;-78
2023/09/23 10:14:24;;;;;;;5.55;2.35;;;;;;;26.94;42.00;100608.00;5984276;23;20371;-78
2023/09/23 10:17:03;;;;;;;4.53;2.47;;;;;;;26.95;40.50;100596.06;5968143;23;20038;-79
2023/09/23 10:19:32;;;;;;;11.32;2.63;;;;;;;27.12;40.19;100600.72;5979441;23;20087;-79
2023/09/23 10:22:23;;;;;;;6.85;2.95;;;;;;;27.15;39.60;100581.13;5969542;23;20507;-79
2023/09/23 10:25:03;;;;;;;;;;;;;;;27.01;41.31;100562.38;5992938;23;20561;-79
2023/09/23 10:27:32;;;;;;;5.00;1.98;;;;;;;27.25;40.74;100595.78;5976223;23;19918;-80
2023/09/23 10:30:00;;;;;;;9.25;2.75;;;;;;;27.21;41.69;100580.16;6004401;23;20308;-79
2023/09/23 10:32:35;;;;;;;4.95;2.15;;;;;;;27.27;41.20;100577.28;5953615;23;20020;-77
2023/09/23 10:35:11;;;;;;;5.68;2.00;;;;;;;27.30;41.60;100575.94;5968199;23;20339;-74
2023/09/23 10:37:45;;;;;;;5.57;2.55;;;;;;;27.21;41.70;100542.00;5951817;23;20314;-76
2023/09/23 10:40:20;;;;;;;11.68;3.08;;;;;;;27.55;39.38;100593.78;5938040;23;20102;-77
2023/09/23 10:42:52;;;;;;;10.93;2.63;;;;;;;27.56;39.33;100584.53;5940852;23;20032;-76
2023/09/23 10:45:22;;;;;;;6.13;2.13;;;;;;;27.56;40.33;100574.47;5970432;23;20198;-78
2023/09/23 10:47:50;;;;;;;8.85;2.42;;;;;;;27.62;41.87;100572.63;5977037;23;20019;-79
2023/09/23 10:50:17;;;;;;;6.03;2.40;;;;;;;27.64;41.67;100597.75;6011085;23;20026;-78
2023/09/23 10:52:43;;;;;;;6.50;2.15;;;;;;;27.41;39.28;100534.16;5984015;23;20027;-77
2023/09/23 10:55:13;;;;;;;6.88;2.42;;;;;;;27.87;39.37;100591.31;5968078;23;20287;-80
2023/09/23 10:57:40;;;;;;;8.90;2.33;;;;;;;28.02;39.79;100599.69;5982963;23;20425;-79
2023/09/23 11:00:20;;;;;;;5.22;2.10;;;;;;;28.14;38.65;100599.56;5975700;23;20066;-79
2023/09/23 11:02:54;;;;;;;4.70;1.88;;;;;;;28.24;40.95;100618.81;5979983;23;20023;-78
2023/09/23 11:05:24;;;;;;;5.93;2.33;;;;;;;28.22;41.32;100587.38;6001707;23;20114;-78
2023/09/23 11:07:54;;;;;;;8.73;2.45;;;;;;;28.12;40.62;100604.47;5987011;23;20331;-77
2023/09/23 11:10:28;;;;;;;7.40;2.20;;;;;;;28.10;39.45;100609.34;6013624;23;20031;-78
2023/09/23 11:13:00;;;;;;;5.03;1.83;;;;;;;28.24;41.65;100610.63;6044840;23;20479;-78
2023/09/23 11:15:30;;;;;;;8.68;3.00;;;;;;;28.05;38.15;100571.06;5974284;23;20027;-79
2023/09/23 11:17:57;;;;;;;5.85;2.13;;;;;;;28.01;41.36;100569.91;5991432;23;20312;-78
2023/09/23 11:20:43;;;;;;;7.97;1.90;;;;;;;28.33;39.69;100584.53;5960028;23;20015;-80
2023/09/23 11:23:18;;;;;;;8.10;2.90;;;;;;;28.65;35.78;100619.31;5985412;23;20312;-78
2023/09/23 11:25:50;;;;;;;4.90;1.75;;;;;;;28.74;38.94;100623.25;5944825;23;20081;-78
2023/09/23 11:28:34;;;;;;;12.38;2.53;;;;;;;28.48;36.23;100580.34;5985541;23;20137;-78
2023/09/23 11:31:13;;;;;;;4.78;2.17;;;;;;;28.66;36.44;100610.03;5996247;23;20517;-76
2023/09/23 11:33:41;;;;;;;9.00;2.63;;;;;;;28.77;34.88;100611.00;5980839;23;20023;-77
2023/09/23 11:36:08;;;;;;;4.32;2.35;;;;;;;28.98;35.11;100622.94;5984280;23;20090;-78
2023/09/23 11:38:35;;;;;;;7.47;2.10;;;;;;;28.98;36.77;100612.84;6031796;23;20063;-77
2023/09/23 11:41:04;;;;;;;5.97;2.17;;;;;;;29.13;37.99;100645.00;5987737;23;20250;-79